sensor_id;sensor_type;location;lat;lon;timestamp;pressure;altitude;pressure_sealevel;temperature;humidity
71485;BME280;59300;52.074;4.758;2022-11-15T00:01:39;100830.31;;;5.46;100.00
71485;BME280;59300;52.074;4.758;2022-11-15T00:04:59;100846.00;;;5.46;100.00
71485;BME280;59300;52.074;4.758;2022-11-15T00:08:20;100844.28;;;5.43;100.00
71485;BME280;59300;52.074;4.758;2022-11-15T00:11:40;100841.69;;;5.43;100.00
71485;BME280;59300;52.074;4.758;2022-11-15T00:15:01;100845.13;;;5.48;100.00
71485;BME280;59300;52.074;4.758;2022-11-15T00:18:20;100838.16;;;5.46;100.00
71485;BME280;59300;52.074;4.758;2022-11-15T00:21:41;100834.66;;;5.47;100.00
71485;BME280;59300;52.074;4.758;2022-11-15T00:25:01;100835.56;;;5.47;100.00
71485;BME280;59300;52.074;4.758;2022-11-15T00:28:21;100823.31;;;5.48;100.00
71485;BME280;59300;52.074;4.758;2022-11-15T00:31:41;100838.13;;;5.50;100.00
71485;BME280;59300;52.074;4.758;2022-11-15T00:35:01;100829.41;;;5.51;100.00
71485;BME280;59300;52.074;4.758;2022-11-15T00:38:21;100818.94;;;5.51;100.00
71485;BME280;59300;52.074;4.758;2022-11-15T00:41:41;100818.06;;;5.54;100.00
71485;BME280;59300;52.074;4.758;2022-11-15T00:45:02;100810.16;;;5.59;100.00
71485;BME280;59300;52.074;4.758;2022-11-15T00:48:22;100794.44;;;5.59;100.00
71485;BME280;59300;52.074;4.758;2022-11-15T00:51:42;100800.53;;;5.61;100.00
71485;BME280;59300;52.074;4.758;2022-11-15T00:55:02;100790.91;;;5.63;100.00
71485;BME280;59300;52.074;4.758;2022-11-15T00:58:22;100796.16;;;5.64;100.00
71485;BME280;59300;52.074;4.758;2022-11-15T01:01:42;100783.97;;;5.59;100.00
71485;BME280;59300;52.074;4.758;2022-11-15T01:05:02;100791.88;;;5.54;100.00
71485;BME280;59300;52.074;4.758;2022-11-15T01:08:22;100795.38;;;5.53;100.00
71485;BME280;59300;52.074;4.758;2022-11-15T01:11:42;100789.25;;;5.49;100.00
71485;BME280;59300;52.074;4.758;2022-11-15T01:15:04;100789.25;;;5.52;100.00
71485;BME280;59300;52.074;4.758;2022-11-15T01:18:24;100791.00;;;5.53;100.00
71485;BME280;59300;52.074;4.758;2022-11-15T01:21:44;100781.38;;;5.56;100.00
71485;BME280;59300;52.074;4.758;2022-11-15T01:25:04;100777.88;;;5.57;100.00
71485;BME280;59300;52.074;4.758;2022-11-15T01:28:24;100773.50;;;5.59;100.00
71485;BME280;59300;52.074;4.758;2022-11-15T01:31:44;100765.59;;;5.62;100.00
71485;BME280;59300;52.074;4.758;2022-11-15T01:35:04;100775.19;;;5.66;100.00
71485;BME280;59300;52.074;4.758;2022-11-15T01:38:25;100773.41;;;5.71;100.00
71485;BME280;59300;52.074;4.758;2022-11-15T01:41:45;100768.13;;;5.74;100.00
71485;BME280;59300;52.074;4.758;2022-11-15T01:45:05;100762.84;;;5.77;100.00
71485;BME280;59300;52.074;4.758;2022-11-15T01:48:31;100766.22;;;5.89;100.00
71485;BME280;59300;52.074;4.758;2022-11-15T01:51:53;100759.19;;;5.97;100.00
71485;BME280;59300;52.074;4.758;2022-11-15T01:55:18;100763.53;;;6.01;100.00
71485;BME280;59300;52.074;4.758;2022-11-15T01:58:40;100752.06;;;6.11;100.00
71485;BME280;59300;52.074;4.758;2022-11-15T02:02:00;100754.63;;;6.18;100.00
71485;BME280;59300;52.074;4.758;2022-11-15T02:05:20;100743.25;;;6.19;100.00
71485;BME280;59300;52.074;4.758;2022-11-15T02:08:40;100738.84;;;6.22;100.00
71485;BME280;59300;52.074;4.758;2022-11-15T02:12:01;100737.00;;;6.29;100.00
71485;BME280;59300;52.074;4.758;2022-11-15T02:15:24;100734.34;;;6.35;100.00
71485;BME280;59300;52.074;4.758;2022-11-15T02:22:51;100714.97;;;6.45;100.00
71485;BME280;59300;52.074;4.758;2022-11-15T02:26:27;100713.22;;;6.48;100.00
71485;BME280;59300;52.074;4.758;2022-11-15T02:30:04;100708.78;;;6.51;100.00
71485;BME280;59300;52.074;4.758;2022-11-15T02:37:10;100704.31;;;6.58;100.00
71485;BME280;59300;52.074;4.758;2022-11-15T02:44:16;100695.47;;;6.65;100.00
71485;BME280;59300;52.074;4.758;2022-11-15T02:47:42;100698.03;;;6.71;100.00
71485;BME280;59300;52.074;4.758;2022-11-15T02:51:03;100691.78;;;6.79;100.00
71485;BME280;59300;52.074;4.758;2022-11-15T02:54:26;100690.84;;;6.83;100.00
71485;BME280;59300;52.074;4.758;2022-11-15T02:57:52;100686.38;;;6.88;100.00
71485;BME280;59300;52.074;4.758;2022-11-15T03:01:30;100682.00;;;6.91;100.00
71485;BME280;59300;52.074;4.758;2022-11-15T03:05:35;100681.88;;;6.98;100.00
71485;BME280;59300;52.074;4.758;2022-11-15T03:12:51;100661.44;;;7.17;100.00
71485;BME280;59300;52.074;4.758;2022-11-15T03:19:46;100672.63;;;7.30;100.00
71485;BME280;59300;52.074;4.758;2022-11-15T03:23:09;100670.75;;;7.35;100.00
71485;BME280;59300;52.074;4.758;2022-11-15T03:26:32;100671.56;;;7.38;100.00
71485;BME280;59300;52.074;4.758;2022-11-15T03:29:57;100676.69;;;7.48;100.00
71485;BME280;59300;52.074;4.758;2022-11-15T03:33:21;100678.34;;;7.52;100.00
71485;BME280;59300;52.074;4.758;2022-11-15T03:36:42;100681.75;;;7.57;100.00
71485;BME280;59300;52.074;4.758;2022-11-15T03:40:04;100687.78;;;7.64;100.00
71485;BME280;59300;52.074;4.758;2022-11-15T03:43:36;100681.50;;;7.71;100.00
71485;BME280;59300;52.074;4.758;2022-11-15T03:50:43;100670.84;;;7.79;100.00
71485;BME280;59300;52.074;4.758;2022-11-15T03:54:04;100672.56;;;7.80;100.00
71485;BME280;59300;52.074;4.758;2022-11-15T03:57:24;100669.84;;;7.86;100.00
71485;BME280;59300;52.074;4.758;2022-11-15T04:00:44;100678.38;;;7.97;100.00
71485;BME280;59300;52.074;4.758;2022-11-15T04:04:04;100680.03;;;8.02;100.00
71485;BME280;59300;52.074;4.758;2022-11-15T04:07:24;100682.56;;;8.08;100.00
71485;BME280;59300;52.074;4.758;2022-11-15T04:10:44;100654.38;;;8.13;100.00
71485;BME280;59300;52.074;4.758;2022-11-15T04:14:04;100660.44;;;8.18;100.00
71485;BME280;59300;52.074;4.758;2022-11-15T04:17:24;100653.34;;;8.22;100.00
71485;BME280;59300;52.074;4.758;2022-11-15T04:20:44;100647.97;;;8.28;100.00
71485;BME280;59300;52.074;4.758;2022-11-15T04:24:04;100648.88;;;8.25;100.00
71485;BME280;59300;52.074;4.758;2022-11-15T04:27:24;100641.75;;;8.30;100.00
71485;BME280;59300;52.074;4.758;2022-11-15T04:30:45;100643.50;;;8.32;100.00
71485;BME280;59300;52.074;4.758;2022-11-15T04:34:05;100645.34;;;8.28;100.00
71485;BME280;59300;52.074;4.758;2022-11-15T04:37:25;100648.75;;;8.32;100.00
71485;BME280;59300;52.074;4.758;2022-11-15T04:40:46;100641.81;;;8.27;100.00
71485;BME280;59300;52.074;4.758;2022-11-15T04:44:06;100652.44;;;8.24;100.00
71485;BME280;59300;52.074;4.758;2022-11-15T04:47:26;100654.94;;;8.29;100.00
71485;BME280;59300;52.074;4.758;2022-11-15T04:50:49;100654.06;;;8.28;100.00
71485;BME280;59300;52.074;4.758;2022-11-15T04:54:09;100661.97;;;8.28;100.00
71485;BME280;59300;52.074;4.758;2022-11-15T04:57:30;100661.94;;;8.30;100.00
71485;BME280;59300;52.074;4.758;2022-11-15T05:00:49;100664.53;;;8.32;100.00
71485;BME280;59300;52.074;4.758;2022-11-15T05:04:10;100659.31;;;8.28;100.00
71485;BME280;59300;52.074;4.758;2022-11-15T05:07:30;100669.84;;;8.28;100.00
71485;BME280;59300;52.074;4.758;2022-11-15T05:10:50;100669.78;;;8.32;100.00
71485;BME280;59300;52.074;4.758;2022-11-15T05:14:10;100678.50;;;8.34;100.00
71485;BME280;59300;52.074;4.758;2022-11-15T05:17:31;100679.50;;;8.28;100.00
71485;BME280;59300;52.074;4.758;2022-11-15T05:20:51;100674.03;;;8.37;100.00
71485;BME280;59300;52.074;4.758;2022-11-15T05:24:11;100684.34;;;8.50;100.00
71485;BME280;59300;52.074;4.758;2022-11-15T05:27:32;100682.38;;;8.58;100.00
71485;BME280;59300;52.074;4.758;2022-11-15T05:30:53;100671.78;;;8.63;100.00
71485;BME280;59300;52.074;4.758;2022-11-15T05:34:13;100675.16;;;8.69;100.00
71485;BME280;59300;52.074;4.758;2022-11-15T05:37:33;100676.75;;;8.75;100.00
71485;BME280;59300;52.074;4.758;2022-11-15T05:40:53;100664.56;;;8.71;100.00
71485;BME280;59300;52.074;4.758;2022-11-15T05:44:18;100669.69;;;8.77;100.00
71485;BME280;59300;52.074;4.758;2022-11-15T05:47:39;100663.63;;;8.75;100.00
71485;BME280;59300;52.074;4.758;2022-11-15T05:50:59;100658.47;;;8.69;100.00
71485;BME280;59300;52.074;4.758;2022-11-15T05:54:21;100661.16;;;8.67;100.00
71485;BME280;59300;52.074;4.758;2022-11-15T05:57:43;100667.19;;;8.71;100.00
71485;BME280;59300;52.074;4.758;2022-11-15T06:01:04;100670.56;;;8.76;100.00
71485;BME280;59300;52.074;4.758;2022-11-15T06:04:25;100683.88;;;8.70;100.00
71485;BME280;59300;52.074;4.758;2022-11-15T06:07:45;100684.72;;;8.72;100.00
71485;BME280;59300;52.074;4.758;2022-11-15T06:11:06;100687.13;;;8.81;100.00
71485;BME280;59300;52.074;4.758;2022-11-15T06:14:27;100685.47;;;8.77;100.00
71485;BME280;59300;52.074;4.758;2022-11-15T06:17:47;100688.19;;;8.74;100.00
71485;BME280;59300;52.074;4.758;2022-11-15T06:21:07;100698.78;;;8.71;100.00
71485;BME280;59300;52.074;4.758;2022-11-15T06:24:27;100697.94;;;8.69;100.00
71485;BME280;59300;52.074;4.758;2022-11-15T06:27:54;100700.72;;;8.63;100.00
71485;BME280;59300;52.074;4.758;2022-11-15T06:31:14;100699.88;;;8.60;100.00
71485;BME280;59300;52.074;4.758;2022-11-15T06:34:34;100709.56;;;8.58;100.00
71485;BME280;59300;52.074;4.758;2022-11-15T06:37:55;100713.44;;;8.39;100.00
71485;BME280;59300;52.074;4.758;2022-11-15T06:41:15;100715.38;;;8.30;100.00
71485;BME280;59300;52.074;4.758;2022-11-15T06:44:35;100712.09;;;8.19;100.00
71485;BME280;59300;52.074;4.758;2022-11-15T06:47:56;100712.31;;;8.10;100.00
71485;BME280;59300;52.074;4.758;2022-11-15T06:51:15;100705.66;;;7.90;100.00
71485;BME280;59300;52.074;4.758;2022-11-15T06:54:36;100708.50;;;7.78;100.00
71485;BME280;59300;52.074;4.758;2022-11-15T06:57:55;100713.69;;;7.82;100.00
71485;BME280;59300;52.074;4.758;2022-11-15T07:01:16;100722.63;;;7.72;100.00
71485;BME280;59300;52.074;4.758;2022-11-15T07:04:36;100723.34;;;7.82;100.00
71485;BME280;59300;52.074;4.758;2022-11-15T07:07:57;100725.13;;;7.80;100.00
71485;BME280;59300;52.074;4.758;2022-11-15T07:11:17;100718.84;;;7.89;100.00
71485;BME280;59300;52.074;4.758;2022-11-15T07:14:37;100707.53;;;7.85;100.00
71485;BME280;59300;52.074;4.758;2022-11-15T07:18:00;100707.44;;;7.88;100.00
71485;BME280;59300;52.074;4.758;2022-11-15T07:21:20;100710.91;;;7.92;100.00
71485;BME280;59300;52.074;4.758;2022-11-15T07:24:46;100714.28;;;7.97;100.00
71485;BME280;59300;52.074;4.758;2022-11-15T07:28:06;100715.16;;;7.97;100.00
71485;BME280;59300;52.074;4.758;2022-11-15T07:31:26;100726.44;;;8.03;100.00
71485;BME280;59300;52.074;4.758;2022-11-15T07:34:46;100724.66;;;8.05;100.00
71485;BME280;59300;52.074;4.758;2022-11-15T07:38:06;100728.22;;;8.00;100.00
71485;BME280;59300;52.074;4.758;2022-11-15T07:41:26;100723.94;;;7.96;100.00
71485;BME280;59300;52.074;4.758;2022-11-15T07:44:47;100711.81;;;7.89;100.00
71485;BME280;59300;52.074;4.758;2022-11-15T07:48:07;100711.13;;;7.79;100.00
71485;BME280;59300;52.074;4.758;2022-11-15T07:51:27;100705.88;;;7.79;100.00
71485;BME280;59300;52.074;4.758;2022-11-15T07:54:47;100714.63;;;7.80;100.00
71485;BME280;59300;52.074;4.758;2022-11-15T07:58:09;100717.13;;;7.86;100.00
71485;BME280;59300;52.074;4.758;2022-11-15T08:01:30;100713.44;;;7.95;100.00
71485;BME280;59300;52.074;4.758;2022-11-15T08:04:50;100706.25;;;8.05;100.00
71485;BME280;59300;52.074;4.758;2022-11-15T08:08:11;100700.00;;;8.12;100.00
71485;BME280;59300;52.074;4.758;2022-11-15T08:11:31;100699.00;;;8.18;100.00
71485;BME280;59300;52.074;4.758;2022-11-15T08:14:51;100689.16;;;8.27;100.00
71485;BME280;59300;52.074;4.758;2022-11-15T08:18:13;100693.44;;;8.32;100.00
71485;BME280;59300;52.074;4.758;2022-11-15T08:21:34;100688.97;;;8.37;100.00
71485;BME280;59300;52.074;4.758;2022-11-15T08:24:54;100668.91;;;8.33;100.00
71485;BME280;59300;52.074;4.758;2022-11-15T08:28:16;100672.16;;;8.44;100.00
71485;BME280;59300;52.074;4.758;2022-11-15T08:31:36;100676.34;;;8.54;100.00
71485;BME280;59300;52.074;4.758;2022-11-15T08:34:56;100667.28;;;8.68;100.00
71485;BME280;59300;52.074;4.758;2022-11-15T08:38:16;100671.41;;;8.80;100.00
71485;BME280;59300;52.074;4.758;2022-11-15T08:41:37;100676.31;;;8.94;100.00
71485;BME280;59300;52.074;4.758;2022-11-15T08:44:57;100684.09;;;9.00;100.00
71485;BME280;59300;52.074;4.758;2022-11-15T08:48:17;100669.97;;;9.02;100.00
71485;BME280;59300;52.074;4.758;2022-11-15T08:51:37;100668.88;;;9.11;100.00
71485;BME280;59300;52.074;4.758;2022-11-15T08:54:58;100665.19;;;9.18;100.00
71485;BME280;59300;52.074;4.758;2022-11-15T08:58:18;100656.34;;;9.21;100.00
71485;BME280;59300;52.074;4.758;2022-11-15T09:01:38;100651.97;;;9.20;100.00
71485;BME280;59300;52.074;4.758;2022-11-15T09:04:58;100647.72;;;9.14;100.00
71485;BME280;59300;52.074;4.758;2022-11-15T09:08:18;100641.72;;;9.09;100.00
71485;BME280;59300;52.074;4.758;2022-11-15T09:11:58;100648.16;;;9.32;100.00
71485;BME280;59300;52.074;4.758;2022-11-15T09:15:21;100643.56;;;9.73;100.00
71485;BME280;59300;52.074;4.758;2022-11-15T09:18:41;100654.56;;;9.56;100.00
71485;BME280;59300;52.074;4.758;2022-11-15T09:22:05;100656.72;;;9.40;100.00
71485;BME280;59300;52.074;4.758;2022-11-15T09:25:25;100653.50;;;9.29;100.00
71485;BME280;59300;52.074;4.758;2022-11-15T09:28:45;100660.44;;;9.33;100.00
71485;BME280;59300;52.074;4.758;2022-11-15T09:32:05;100658.78;;;9.29;100.00
71485;BME280;59300;52.074;4.758;2022-11-15T09:35:26;100653.38;;;9.35;100.00
71485;BME280;59300;52.074;4.758;2022-11-15T09:38:46;100650.56;;;9.41;100.00
71485;BME280;59300;52.074;4.758;2022-11-15T09:46:01;100649.25;;;9.58;100.00
71485;BME280;59300;52.074;4.758;2022-11-15T09:49:26;100658.72;;;9.65;100.00
71485;BME280;59300;52.074;4.758;2022-11-15T09:52:48;100665.56;;;9.72;100.00
71485;BME280;59300;52.074;4.758;2022-11-15T09:56:01;100664.72;;;9.70;100.00
71485;BME280;59300;52.074;4.758;2022-11-15T09:59:46;100651.47;;;9.73;100.00
71485;BME280;59300;52.074;4.758;2022-11-15T10:05:43;100643.56;;;9.73;100.00
71485;BME280;59300;52.074;4.758;2022-11-15T10:09:04;100631.28;;;9.72;100.00
71485;BME280;59300;52.074;4.758;2022-11-15T10:12:08;100622.28;;;9.79;100.00
71485;BME280;59300;52.074;4.758;2022-11-15T10:15:16;100615.81;;;9.91;100.00
71485;BME280;59300;52.074;4.758;2022-11-15T10:18:25;100602.41;;;9.99;100.00
71485;BME280;59300;52.074;4.758;2022-11-15T10:25:16;100588.41;;;9.97;100.00
71485;BME280;59300;52.074;4.758;2022-11-15T10:28:23;100596.88;;;10.08;100.00
71485;BME280;59300;52.074;4.758;2022-11-15T10:31:28;100596.50;;;10.21;100.00
71485;BME280;59300;52.074;4.758;2022-11-15T10:34:35;100601.41;;;10.33;100.00
71485;BME280;59300;52.074;4.758;2022-11-15T10:37:37;100595.00;;;10.42;100.00
71485;BME280;59300;52.074;4.758;2022-11-15T10:40:40;100588.06;;;10.39;100.00
71485;BME280;59300;52.074;4.758;2022-11-15T10:43:42;100580.75;;;10.48;100.00
71485;BME280;59300;52.074;4.758;2022-11-15T10:46:46;100584.72;;;10.61;100.00
71485;BME280;59300;52.074;4.758;2022-11-15T10:49:57;100561.38;;;10.75;100.00
71485;BME280;59300;52.074;4.758;2022-11-15T10:53:01;100565.59;;;10.81;100.00
71485;BME280;59300;52.074;4.758;2022-11-15T10:56:03;100562.84;;;10.84;100.00
71485;BME280;59300;52.074;4.758;2022-11-15T10:59:15;100560.56;;;10.73;100.00
71485;BME280;59300;52.074;4.758;2022-11-15T11:02:36;100555.78;;;10.58;100.00
71485;BME280;59300;52.074;4.758;2022-11-15T11:05:40;100556.69;;;10.57;100.00
71485;BME280;59300;52.074;4.758;2022-11-15T11:09:02;100559.94;;;10.65;100.00
71485;BME280;59300;52.074;4.758;2022-11-15T11:12:06;100552.66;;;10.73;100.00
71485;BME280;59300;52.074;4.758;2022-11-15T11:15:13;100557.03;;;10.74;100.00
71485;BME280;59300;52.074;4.758;2022-11-15T11:18:27;100539.22;;;10.80;100.00
71485;BME280;59300;52.074;4.758;2022-11-15T11:28:59;100523.66;;;11.22;100.00
71485;BME280;59300;52.074;4.758;2022-11-15T11:35:34;100508.81;;;11.20;100.00
71485;BME280;59300;52.074;4.758;2022-11-15T11:42:04;100479.38;;;11.05;100.00
71485;BME280;59300;52.074;4.758;2022-11-15T11:48:41;100481.50;;;10.96;100.00
71485;BME280;59300;52.074;4.758;2022-11-15T11:51:52;100481.00;;;11.10;100.00
71485;BME280;59300;52.074;4.758;2022-11-15T11:58:17;100468.44;;;11.16;99.86
71485;BME280;59300;52.074;4.758;2022-11-15T12:01:24;100463.44;;;11.09;100.00
71485;BME280;59300;52.074;4.758;2022-11-15T12:04:34;100454.06;;;11.00;100.00
71485;BME280;59300;52.074;4.758;2022-11-15T12:07:39;100457.16;;;11.11;100.00
71485;BME280;59300;52.074;4.758;2022-11-15T12:10:45;100452.03;;;11.08;100.00
71485;BME280;59300;52.074;4.758;2022-11-15T12:13:55;100436.91;;;11.12;100.00
71485;BME280;59300;52.074;4.758;2022-11-15T12:16:59;100429.56;;;11.20;100.00
71485;BME280;59300;52.074;4.758;2022-11-15T12:20:13;100427.81;;;11.43;100.00
71485;BME280;59300;52.074;4.758;2022-11-15T12:23:57;100414.13;;;11.55;99.77
71485;BME280;59300;52.074;4.758;2022-11-15T12:30:38;100403.16;;;11.66;100.00
71485;BME280;59300;52.074;4.758;2022-11-15T12:33:44;100400.00;;;11.56;100.00
71485;BME280;59300;52.074;4.758;2022-11-15T12:36:48;100390.31;;;11.57;100.00
71485;BME280;59300;52.074;4.758;2022-11-15T12:43:37;100381.63;;;11.75;98.07
71485;BME280;59300;52.074;4.758;2022-11-15T12:56:25;100372.72;;;12.00;93.18
71485;BME280;59300;52.074;4.758;2022-11-15T12:59:55;100367.44;;;12.00;93.48
71485;BME280;59300;52.074;4.758;2022-11-15T13:03:21;100360.28;;;11.80;94.56
71485;BME280;59300;52.074;4.758;2022-11-15T13:06:56;100349.72;;;11.35;94.76
71485;BME280;59300;52.074;4.758;2022-11-15T13:09:58;100345.53;;;11.30;95.19
71485;BME280;59300;52.074;4.758;2022-11-15T13:13:01;100345.16;;;11.17;94.42
71485;BME280;59300;52.074;4.758;2022-11-15T13:16:04;100346.31;;;11.10;95.10
71485;BME280;59300;52.074;4.758;2022-11-15T13:19:05;100337.69;;;11.04;95.26
71485;BME280;59300;52.074;4.758;2022-11-15T13:22:11;100338.84;;;10.97;95.29
71485;BME280;59300;52.074;4.758;2022-11-15T13:25:19;100333.06;;;10.87;95.88
71485;BME280;59300;52.074;4.758;2022-11-15T13:28:41;100332.44;;;10.81;95.44
71485;BME280;59300;52.074;4.758;2022-11-15T13:31:44;100327.16;;;10.81;97.00
71485;BME280;59300;52.074;4.758;2022-11-15T13:34:49;100317.78;;;10.72;96.47
71485;BME280;59300;52.074;4.758;2022-11-15T13:37:55;100317.03;;;10.68;96.31
71485;BME280;59300;52.074;4.758;2022-11-15T13:40:58;100306.72;;;10.62;96.93
71485;BME280;59300;52.074;4.758;2022-11-15T13:44:01;100294.38;;;10.63;96.18
71485;BME280;59300;52.074;4.758;2022-11-15T13:47:05;100296.28;;;10.59;96.55
71485;BME280;59300;52.074;4.758;2022-11-15T13:50:11;100285.78;;;10.57;95.54
71485;BME280;59300;52.074;4.758;2022-11-15T13:53:14;100282.16;;;10.60;95.31
71485;BME280;59300;52.074;4.758;2022-11-15T13:56:16;100282.28;;;10.57;94.46
71485;BME280;59300;52.074;4.758;2022-11-15T13:59:26;100270.97;;;10.53;95.57
71485;BME280;59300;52.074;4.758;2022-11-15T14:02:30;100258.34;;;10.62;94.86
71485;BME280;59300;52.074;4.758;2022-11-15T14:05:32;100251.59;;;10.54;96.59
71485;BME280;59300;52.074;4.758;2022-11-15T14:08:35;100250.63;;;10.57;95.60
71485;BME280;59300;52.074;4.758;2022-11-15T14:11:48;100238.22;;;10.59;96.70
71485;BME280;59300;52.074;4.758;2022-11-15T14:14:50;100229.47;;;10.58;97.52
71485;BME280;59300;52.074;4.758;2022-11-15T14:17:51;100224.28;;;10.55;97.35
71485;BME280;59300;52.074;4.758;2022-11-15T14:21:08;100211.94;;;10.56;97.24
71485;BME280;59300;52.074;4.758;2022-11-15T14:24:18;100206.69;;;10.56;98.77
71485;BME280;59300;52.074;4.758;2022-11-15T14:27:25;100206.78;;;10.53;98.17
71485;BME280;59300;52.074;4.758;2022-11-15T14:30:27;100198.94;;;10.51;97.92
71485;BME280;59300;52.074;4.758;2022-11-15T14:36:30;100199.69;;;10.55;97.18
71485;BME280;59300;52.074;4.758;2022-11-15T14:39:31;100198.19;;;10.48;96.95
71485;BME280;59300;52.074;4.758;2022-11-15T14:42:33;100184.19;;;10.45;96.86
71485;BME280;59300;52.074;4.758;2022-11-15T14:45:34;100185.22;;;10.41;98.36
71485;BME280;59300;52.074;4.758;2022-11-15T14:48:36;100170.03;;;10.48;97.59
71485;BME280;59300;52.074;4.758;2022-11-15T14:51:38;100168.00;;;10.55;96.93
71485;BME280;59300;52.074;4.758;2022-11-15T14:54:39;100174.09;;;10.57;96.55
71485;BME280;59300;52.074;4.758;2022-11-15T14:57:40;100162.00;;;10.51;97.36
71485;BME280;59300;52.074;4.758;2022-11-15T15:00:42;100153.34;;;10.48;97.28
71485;BME280;59300;52.074;4.758;2022-11-15T15:03:43;100156.00;;;10.48;97.67
71485;BME280;59300;52.074;4.758;2022-11-15T15:06:45;100151.53;;;10.50;97.20
71485;BME280;59300;52.074;4.758;2022-11-15T15:09:46;100143.59;;;10.50;97.33
71485;BME280;59300;52.074;4.758;2022-11-15T15:12:48;100146.53;;;10.42;98.38
71485;BME280;59300;52.074;4.758;2022-11-15T15:15:51;100135.25;;;10.38;98.65
71485;BME280;59300;52.074;4.758;2022-11-15T15:18:53;100133.50;;;10.37;98.89
71485;BME280;59300;52.074;4.758;2022-11-15T15:21:55;100135.34;;;10.35;99.84
71485;BME280;59300;52.074;4.758;2022-11-15T15:24:56;100137.22;;;10.32;100.00
71485;BME280;59300;52.074;4.758;2022-11-15T15:27:59;100130.28;;;10.29;99.58
71485;BME280;59300;52.074;4.758;2022-11-15T15:31:01;100121.44;;;10.30;100.00
71485;BME280;59300;52.074;4.758;2022-11-15T15:34:03;100125.78;;;10.33;100.00
71485;BME280;59300;52.074;4.758;2022-11-15T15:43:15;100125.88;;;10.29;100.00
71485;BME280;59300;52.074;4.758;2022-11-15T15:46:18;100116.16;;;10.30;100.00
71485;BME280;59300;52.074;4.758;2022-11-15T15:49:20;100117.09;;;10.29;100.00
71485;BME280;59300;52.074;4.758;2022-11-15T15:52:22;100111.16;;;10.24;100.00
71485;BME280;59300;52.074;4.758;2022-11-15T15:55:24;100112.00;;;10.24;100.00
71485;BME280;59300;52.074;4.758;2022-11-15T15:58:25;100105.75;;;10.27;100.00
71485;BME280;59300;52.074;4.758;2022-11-15T16:01:27;100099.69;;;10.25;100.00
71485;BME280;59300;52.074;4.758;2022-11-15T16:04:28;100109.59;;;10.18;100.00
71485;BME280;59300;52.074;4.758;2022-11-15T16:07:30;100103.75;;;10.10;100.00
71485;BME280;59300;52.074;4.758;2022-11-15T16:10:33;100104.56;;;9.88;100.00
71485;BME280;59300;52.074;4.758;2022-11-15T16:13:34;100101.56;;;9.74;100.00
71485;BME280;59300;52.074;4.758;2022-11-15T16:16:37;100101.06;;;9.64;100.00
71485;BME280;59300;52.074;4.758;2022-11-15T16:19:38;100097.16;;;9.50;100.00
71485;BME280;59300;52.074;4.758;2022-11-15T16:22:40;100094.94;;;9.38;100.00
71485;BME280;59300;52.074;4.758;2022-11-15T16:25:45;100090.88;;;9.29;100.00
71485;BME280;59300;52.074;4.758;2022-11-15T16:28:47;100098.94;;;9.25;100.00
71485;BME280;59300;52.074;4.758;2022-11-15T16:31:48;100100.03;;;9.17;100.00
71485;BME280;59300;52.074;4.758;2022-11-15T16:34:50;100096.59;;;9.15;100.00
71485;BME280;59300;52.074;4.758;2022-11-15T16:37:51;100093.28;;;9.10;100.00
71485;BME280;59300;52.074;4.758;2022-11-15T16:40:53;100088.69;;;9.15;100.00
71485;BME280;59300;52.074;4.758;2022-11-15T16:43:54;100088.66;;;9.17;100.00
71485;BME280;59300;52.074;4.758;2022-11-15T16:46:56;100083.56;;;9.12;100.00
71485;BME280;59300;52.074;4.758;2022-11-15T16:49:57;100083.41;;;9.15;100.00
71485;BME280;59300;52.074;4.758;2022-11-15T16:52:59;100079.03;;;9.16;100.00
71485;BME280;59300;52.074;4.758;2022-11-15T16:56:01;100078.16;;;9.15;100.00
71485;BME280;59300;52.074;4.758;2022-11-15T16:59:02;100079.03;;;9.16;100.00
71485;BME280;59300;52.074;4.758;2022-11-15T17:02:10;100073.81;;;9.14;100.00
71485;BME280;59300;52.074;4.758;2022-11-15T17:05:13;100080.84;;;9.14;100.00
71485;BME280;59300;52.074;4.758;2022-11-15T17:08:20;100076.44;;;9.14;100.00
71485;BME280;59300;52.074;4.758;2022-11-15T17:11:22;100071.16;;;9.14;100.00
71485;BME280;59300;52.074;4.758;2022-11-15T17:14:23;100069.34;;;9.16;100.00
71485;BME280;59300;52.074;4.758;2022-11-15T17:17:25;100061.59;;;9.13;100.00
71485;BME280;59300;52.074;4.758;2022-11-15T17:20:26;100067.63;;;9.15;100.00
71485;BME280;59300;52.074;4.758;2022-11-15T17:23:28;100056.09;;;9.19;100.00
71485;BME280;59300;52.074;4.758;2022-11-15T17:26:29;100062.25;;;9.18;100.00
71485;BME280;59300;52.074;4.758;2022-11-15T17:29:35;100057.00;;;9.18;100.00
71485;BME280;59300;52.074;4.758;2022-11-15T17:32:37;100060.44;;;9.20;100.00
71485;BME280;59300;52.074;4.758;2022-11-15T17:35:38;100057.88;;;9.19;100.00
71485;BME280;59300;52.074;4.758;2022-11-15T17:38:43;100055.28;;;9.17;100.00
71485;BME280;59300;52.074;4.758;2022-11-15T17:41:45;100057.00;;;9.18;100.00
71485;BME280;59300;52.074;4.758;2022-11-15T17:44:46;100057.09;;;9.15;100.00
71485;BME280;59300;52.074;4.758;2022-11-15T17:47:48;100049.09;;;9.18;100.00
71485;BME280;59300;52.074;4.758;2022-11-15T17:50:57;100044.75;;;9.17;100.00
71485;BME280;59300;52.074;4.758;2022-11-15T17:53:59;100048.09;;;9.22;100.00
71485;BME280;59300;52.074;4.758;2022-11-15T17:57:00;100037.56;;;9.22;100.00
71485;BME280;59300;52.074;4.758;2022-11-15T18:00:02;100038.38;;;9.25;100.00
71485;BME280;59300;52.074;4.758;2022-11-15T18:03:04;100034.69;;;9.29;100.00
71485;BME280;59300;52.074;4.758;2022-11-15T18:06:07;100035.50;;;9.31;100.00
71485;BME280;59300;52.074;4.758;2022-11-15T18:09:08;100019.69;;;9.31;100.00
71485;BME280;59300;52.074;4.758;2022-11-15T18:12:11;100028.94;;;9.43;100.00